West Rushville, Ohio
Current Conditions -  °F | °C
As of 9:53 PM on Saturday 22 Nov 2014 (Local Time) from KLHQ Reporting Station
Scattered Clouds Scattered Clouds  
Wind Chill: 50°   Ceiling: Unl
Heat Index: 50°   Visibility: 10mi
Dew Point: 32°   Wind: 7mph
Humidity: 50%   Direction: 180°S
Pressure: 30.09"   Gusts: NA
Location:  39.76°N, 82.45°W
Report Text: KLHQ 230253Z AUTO 18006KT 10SM SCT100 10/00 A3009 RMK AO2 SLP192 T01000000 58007
Loading
Personal Weather Stations






























Interactive Weather Map New forecast layout! Learn more

10-Day Weather Forecast

Advertisements
Track Severe Weather on mobile